createdAt,value
2019-02-21T01:08:42.138Z,14.53
2019-02-21T01:11:10.734Z,15.00
2019-02-21T01:13:39.201Z,17.37
2019-02-21T01:16:07.626Z,19.73
2019-02-21T01:18:36.206Z,17.50
2019-02-21T01:21:04.611Z,17.80
2019-02-21T01:23:33.414Z,15.68
2019-02-21T01:26:01.810Z,17.50
2019-02-21T01:28:30.246Z,19.97
2019-02-21T01:30:58.666Z,20.87
2019-02-21T01:33:27.158Z,18.17
2019-02-21T01:35:55.666Z,18.50
2019-02-21T01:38:24.074Z,17.33
2019-02-21T01:40:52.490Z,18.10
2019-02-21T01:43:20.919Z,19.87
2019-02-21T01:45:49.330Z,18.00
2019-02-21T01:48:17.882Z,22.30
2019-02-21T01:50:46.382Z,20.47
2019-02-21T01:53:14.856Z,19.97
2019-02-21T01:55:44.090Z,19.57
2019-02-21T01:58:12.518Z,18.27
2019-02-21T02:00:40.998Z,19.53
2019-02-21T02:03:09.484Z,22.63
2019-02-21T02:05:37.982Z,20.13
2019-02-21T02:08:06.399Z,18.77
2019-02-21T02:10:34.894Z,19.07
2019-02-21T02:13:03.371Z,21.60
2019-02-21T02:15:32.378Z,22.50
2019-02-21T02:18:00.871Z,23.47
2019-02-21T02:20:29.626Z,20.40
2019-02-21T02:22:58.151Z,20.70
2019-02-21T02:25:26.650Z,21.97
2019-02-21T02:27:55.151Z,19.10
2019-02-21T02:30:23.655Z,24.77
2019-02-21T02:32:52.172Z,21.43
2019-02-21T02:35:20.735Z,23.13
2019-02-21T02:37:49.215Z,21.07
2019-02-21T02:40:17.839Z,22.77
2019-02-21T02:42:46.263Z,19.33
2019-02-21T02:45:14.759Z,18.80
2019-02-21T02:47:43.268Z,21.63
2019-02-21T02:50:11.690Z,21.87
2019-02-21T02:52:40.147Z,20.53
2019-02-21T02:55:08.656Z,20.33
2019-02-21T02:57:37.127Z,21.77
2019-02-21T03:00:06.328Z,22.90
2019-02-21T03:02:34.851Z,21.83
2019-02-21T03:05:03.404Z,22.87
2019-02-21T03:07:31.828Z,22.67
2019-02-21T03:10:00.535Z,21.73
2019-02-21T03:12:29.123Z,24.60
2019-02-21T03:14:57.554Z,26.90
2019-02-21T03:17:26.343Z,24.87
2019-02-21T03:19:54.786Z,21.50
2019-02-21T03:22:23.625Z,26.87
2019-02-21T03:24:52.164Z,23.53
2019-02-21T03:27:20.596Z,22.03
2019-02-21T03:29:49.094Z,24.63
2019-02-21T03:32:17.540Z,22.83
2019-02-21T03:34:46.146Z,24.80
2019-02-21T03:37:14.605Z,24.57
2019-02-21T03:39:43.464Z,22.87
2019-02-21T03:42:11.932Z,23.13
2019-02-21T03:44:40.533Z,25.13
2019-02-21T03:47:09.053Z,24.83
2019-02-21T03:49:37.480Z,24.07
2019-02-21T03:52:05.917Z,23.70
2019-02-21T03:54:34.457Z,24.90
2019-02-21T03:57:02.952Z,25.93
2019-02-21T03:59:31.448Z,26.00
2019-02-21T04:02:05.383Z,29.57
2019-02-21T04:04:30.376Z,23.43
2019-02-21T04:06:58.865Z,23.60
2019-02-21T04:09:27.410Z,28.17
2019-02-21T04:11:55.861Z,26.53
2019-02-21T04:14:24.495Z,25.93
2019-02-21T04:16:52.913Z,28.17
2019-02-21T04:19:21.794Z,25.60
2019-02-21T04:21:50.230Z,26.23
2019-02-21T04:24:18.729Z,29.30
2019-02-21T04:26:47.174Z,27.73
2019-02-21T04:29:15.657Z,29.63
2019-02-21T04:31:44.226Z,27.43
2019-02-21T04:34:12.817Z,25.63
2019-02-21T04:36:41.237Z,28.80
2019-02-21T04:39:09.665Z,27.03
2019-02-21T04:41:38.129Z,23.93
2019-02-21T04:44:06.660Z,30.43
2019-02-21T04:46:35.238Z,25.73
2019-02-21T04:49:03.702Z,28.27
2019-02-21T04:51:32.629Z,30.63
2019-02-21T04:54:01.129Z,28.87
2019-02-21T04:56:29.534Z,31.47
2019-02-21T04:58:58.025Z,30.83
2019-02-21T05:01:26.540Z,30.03
2019-02-21T05:03:55.025Z,29.70
2019-02-21T05:06:23.454Z,25.47
2019-02-21T05:08:51.962Z,32.60
2019-02-21T05:11:20.506Z,33.57
2019-02-21T05:13:49.150Z,30.20
2019-02-21T05:16:17.630Z,32.60
2019-02-21T05:18:46.194Z,31.00
2019-02-21T05:21:14.877Z,30.37
2019-02-21T05:23:43.389Z,36.33
2019-02-21T05:26:14.802Z,31.07
2019-02-21T05:28:43.337Z,35.43
2019-02-21T05:31:24.627Z,35.70
2019-02-21T05:34:07.090Z,39.80
2019-02-21T05:36:57.910Z,34.67
2019-02-21T05:39:41.649Z,37.77
2019-02-21T05:42:35.360Z,37.80
2019-02-21T05:45:18.814Z,37.30
2019-02-21T05:48:10.420Z,39.10
2019-02-21T05:50:47.002Z,40.77
2019-02-21T05:53:27.786Z,37.67
2019-02-21T05:56:14.062Z,41.47
2019-02-21T05:58:49.714Z,37.00
2019-02-21T06:01:40.210Z,38.20
2019-02-21T06:04:30.958Z,38.77
2019-02-21T06:07:24.503Z,32.77
2019-02-21T06:10:14.946Z,43.40
2019-02-21T06:13:07.938Z,37.70
2019-02-21T06:15:59.407Z,39.93
2019-02-21T06:18:39.292Z,38.77
2019-02-21T06:21:26.935Z,40.00
2019-02-21T06:24:14.491Z,39.67
2019-02-21T06:26:51.199Z,38.27
2019-02-21T06:29:34.029Z,35.50
2019-02-21T06:32:13.544Z,37.57
2019-02-21T06:34:32.902Z,35.67
2019-02-21T06:37:01.431Z,42.73
2019-02-21T06:39:29.887Z,38.73
2019-02-21T06:41:59.923Z,43.20
2019-02-21T06:44:28.867Z,38.33
2019-02-21T06:46:57.359Z,36.60
2019-02-21T06:49:32.421Z,40.23
2019-02-21T06:51:56.583Z,37.80
2019-02-21T06:54:25.106Z,40.93
2019-02-21T06:56:55.604Z,40.17
2019-02-21T06:59:47.103Z,36.40
2019-02-21T07:02:15.839Z,40.87
2019-02-21T07:04:44.339Z,36.40
2019-02-21T07:07:12.827Z,37.87
2019-02-21T07:09:41.295Z,41.43
2019-02-21T07:12:10.615Z,36.50
2019-02-21T07:14:39.256Z,38.73
2019-02-21T07:17:08.504Z,36.60
2019-02-21T07:19:37.332Z,36.00
2019-02-21T07:22:06.374Z,36.90
2019-02-21T07:24:38.426Z,41.17
2019-02-21T07:27:06.452Z,35.97
2019-02-21T07:29:35.603Z,36.67
2019-02-21T07:32:04.169Z,32.87
2019-02-21T07:34:33.152Z,40.63
2019-02-21T07:37:01.659Z,35.03
2019-02-21T07:39:35.943Z,32.90
2019-02-21T07:42:00.602Z,34.67
2019-02-21T07:44:29.066Z,36.67
2019-02-21T07:46:57.556Z,40.63
2019-02-21T07:49:26.152Z,36.93
2019-02-21T07:51:54.776Z,33.37
2019-02-21T07:54:23.216Z,32.13
2019-02-21T07:56:51.721Z,34.80
2019-02-21T07:59:20.682Z,38.70
2019-02-21T08:01:49.193Z,33.07
2019-02-21T08:04:17.617Z,36.20
2019-02-21T08:06:46.188Z,33.67
2019-02-21T08:09:14.697Z,41.27
2019-02-21T08:11:43.128Z,39.57
2019-02-21T08:14:11.548Z,37.30
2019-02-21T08:16:39.954Z,35.93
2019-02-21T08:19:08.788Z,37.30
2019-02-21T08:21:37.745Z,39.80
2019-02-21T08:24:06.244Z,36.43
2019-02-21T08:26:34.725Z,36.53
2019-02-21T08:29:05.906Z,31.80
2019-02-21T08:31:33.737Z,43.63
2019-02-21T08:34:24.881Z,38.33
2019-02-21T08:36:53.397Z,33.87
2019-02-21T08:39:21.846Z,33.80
2019-02-21T08:41:50.353Z,34.57
2019-02-21T08:44:18.857Z,34.93
2019-02-21T08:46:47.361Z,34.17
2019-02-21T08:49:15.873Z,33.33
2019-02-21T08:51:44.290Z,33.37
2019-02-21T08:54:14.008Z,36.30
2019-02-21T08:56:43.549Z,35.43
2019-02-21T08:59:19.613Z,33.77
2019-02-21T09:01:52.201Z,37.97
2019-02-21T09:04:27.305Z,34.43
2019-02-21T09:06:51.937Z,35.92
2019-02-21T09:09:20.689Z,39.43
2019-02-21T09:11:50.593Z,34.43
2019-02-21T09:14:19.821Z,35.40
2019-02-21T09:16:48.438Z,32.77
2019-02-21T09:19:17.538Z,35.63
2019-02-21T09:21:46.676Z,36.03
2019-02-21T09:26:57.103Z,39.43
2019-02-21T09:29:26.204Z,37.57
2019-02-21T09:31:55.142Z,34.53
2019-02-21T09:34:24.038Z,37.90
2019-02-21T09:36:56.962Z,37.40
2019-02-21T09:39:25.717Z,40.30
2019-02-21T09:41:54.562Z,40.53
2019-02-21T09:44:27.464Z,44.30
2019-02-21T09:46:59.454Z,38.57
2019-02-21T09:49:34.542Z,40.93
2019-02-21T09:52:07.906Z,39.87
2019-02-21T09:54:40.174Z,44.10
2019-02-21T09:57:13.691Z,44.83
2019-02-21T09:59:44.722Z,38.63
2019-02-21T10:02:14.431Z,42.83
2019-02-21T10:04:43.186Z,46.50
2019-02-21T10:07:11.806Z,40.97
2019-02-21T10:09:40.538Z,44.20
2019-02-21T10:12:09.254Z,43.33
2019-02-21T10:14:37.971Z,42.33
2019-02-21T10:17:06.859Z,44.88
2019-02-21T10:19:35.747Z,43.00
2019-02-21T10:22:04.607Z,41.73
2019-02-21T10:24:33.575Z,45.47
2019-02-21T10:27:02.843Z,46.53
2019-02-21T10:29:31.925Z,40.27
2019-02-21T10:32:02.699Z,44.63
2019-02-21T10:34:42.456Z,42.77
2019-02-21T10:37:03.198Z,40.63
2019-02-21T10:39:32.744Z,38.70
2019-02-21T10:42:04.104Z,42.07
2019-02-21T10:44:33.471Z,42.20
2019-02-21T10:47:02.752Z,38.77
2019-02-21T10:49:32.084Z,41.83
2019-02-21T10:52:02.339Z,37.73
2019-02-21T10:54:31.746Z,40.47
2019-02-21T10:57:00.673Z,36.30
2019-02-21T10:59:45.921Z,34.70
2019-02-21T11:02:06.655Z,30.57
2019-02-21T11:04:42.095Z,32.00
2019-02-21T11:07:10.506Z,27.40
2019-02-21T11:09:58.927Z,28.37
2019-02-21T11:12:31.536Z,31.67
2019-02-21T11:15:00.627Z,34.93
2019-02-21T11:17:31.614Z,31.20
2019-02-21T11:20:12.283Z,32.60
2019-02-21T11:22:41.500Z,31.20
2019-02-21T11:25:10.680Z,34.03
2019-02-21T11:27:39.628Z,33.07
2019-02-21T11:30:11.945Z,35.93
2019-02-21T11:32:40.889Z,40.73
2019-02-21T11:35:10.340Z,36.00
2019-02-21T11:37:43.368Z,36.90
2019-02-21T11:40:11.644Z,37.50
2019-02-21T11:42:40.952Z,36.13
2019-02-21T11:45:12.048Z,39.73
2019-02-21T11:47:41.021Z,36.73
2019-02-21T11:50:11.552Z,34.13
2019-02-21T11:52:40.585Z,36.87
2019-02-21T11:55:10.676Z,34.83
2019-02-21T11:57:39.826Z,39.17
2019-02-21T12:00:11.569Z,32.93
2019-02-21T12:02:40.560Z,36.87
2019-02-21T12:05:17.099Z,34.10
2019-02-21T12:07:41.144Z,34.60
2019-02-21T12:10:10.563Z,32.63
2019-02-21T12:12:39.877Z,31.50
2019-02-21T12:15:09.749Z,30.60
2019-02-21T12:17:38.977Z,36.33
2019-02-21T12:20:09.948Z,32.33
2019-02-21T12:22:39.090Z,32.33
2019-02-21T12:25:10.057Z,33.23
2019-02-21T12:27:39.032Z,34.50
2019-02-21T12:30:09.624Z,33.27
2019-02-21T12:32:38.581Z,28.90
2019-02-21T12:35:07.817Z,32.10
2019-02-21T12:37:36.777Z,28.53
2019-02-21T12:40:06.418Z,28.20
2019-02-21T12:42:35.389Z,25.17
2019-02-21T12:45:04.665Z,26.27
2019-02-21T12:47:33.572Z,22.87
2019-02-21T12:50:02.553Z,24.07
2019-02-21T12:52:31.533Z,23.50
2019-02-21T12:55:00.566Z,22.17
2019-02-21T12:57:29.785Z,21.03
2019-02-21T12:59:58.677Z,20.13
2019-02-21T13:02:27.797Z,22.77
2019-02-21T13:04:57.017Z,22.67
2019-02-21T13:07:26.273Z,21.57
2019-02-21T13:09:55.265Z,20.70
2019-02-21T13:12:24.242Z,22.77
2019-02-21T13:14:53.213Z,19.90
2019-02-21T13:17:22.189Z,21.60
2019-02-21T13:19:51.198Z,20.40
2019-02-21T13:22:20.270Z,21.45
2019-02-21T13:24:49.238Z,24.00
2019-02-21T13:27:18.130Z,23.73
2019-02-21T13:29:47.165Z,24.53
2019-02-21T13:32:16.402Z,24.33
2019-02-21T13:34:45.290Z,25.63
2019-02-21T13:37:14.434Z,25.43
2019-02-21T13:39:43.405Z,27.43
2019-02-21T13:42:12.290Z,25.43
2019-02-21T13:44:42.080Z,26.00
2019-02-21T13:47:11.128Z,23.97
2019-02-21T13:49:40.047Z,27.03
2019-02-21T13:52:09.227Z,24.63
2019-02-21T13:54:38.418Z,26.50
2019-02-21T13:57:07.310Z,26.20
2019-02-21T13:59:36.282Z,25.70
2019-02-21T14:02:05.314Z,26.80
2019-02-21T14:04:34.294Z,23.30
2019-02-21T14:07:03.290Z,21.97
2019-02-21T14:09:32.263Z,24.13
2019-02-21T14:12:02.586Z,23.80
2019-02-21T14:14:31.515Z,25.80
2019-02-21T14:17:00.544Z,22.83
2019-02-21T14:19:29.587Z,24.73
2019-02-21T14:22:05.379Z,19.27
2019-02-21T14:24:38.974Z,21.83
2019-02-21T14:27:31.733Z,23.00
2019-02-21T14:30:00.843Z,26.53
2019-02-21T14:32:39.787Z,20.37
2019-02-21T14:35:16.823Z,24.07
2019-02-21T14:37:49.087Z,20.07
2019-02-21T14:40:23.421Z,17.63
2019-02-21T14:43:00.680Z,21.65
2019-02-21T14:45:39.039Z,22.80
2019-02-21T14:48:09.229Z,20.70
2019-02-21T14:50:38.936Z,19.00
2019-02-21T14:53:11.812Z,18.17
2019-02-21T14:55:42.082Z,19.57
2019-02-21T14:58:13.353Z,17.40
2019-02-21T15:00:50.179Z,17.87
2019-02-21T15:03:25.992Z,18.73
2019-02-21T15:05:55.723Z,17.20
2019-02-21T15:08:30.583Z,21.33
2019-02-21T15:11:03.392Z,17.23
2019-02-21T15:13:34.229Z,20.23
2019-02-21T15:16:04.050Z,17.83
2019-02-21T15:18:50.201Z,17.50
2019-02-21T15:21:17.325Z,17.93
2019-02-21T15:23:47.497Z,16.60
2019-02-21T15:26:16.456Z,15.87
2019-02-21T15:28:47.772Z,15.03
2019-02-21T15:31:27.876Z,19.70
2019-02-21T15:33:56.940Z,15.98
2019-02-21T15:36:45.832Z,15.37
2019-02-21T15:39:27.828Z,12.30
2019-02-21T15:42:05.716Z,16.07
2019-02-21T15:44:52.996Z,11.30
2019-02-21T15:47:33.321Z,22.80
2019-02-21T15:50:02.894Z,16.93
2019-02-21T15:52:31.861Z,19.90
2019-02-21T15:55:11.966Z,16.50
2019-02-21T15:57:31.916Z,15.37
2019-02-21T16:00:01.313Z,18.37
2019-02-21T16:02:30.376Z,19.20
2019-02-21T16:04:59.377Z,22.13
2019-02-21T16:07:28.676Z,19.53
2019-02-21T16:09:57.753Z,20.07
2019-02-21T16:12:27.677Z,18.03
2019-02-21T16:14:57.164Z,20.50
2019-02-21T16:17:26.149Z,17.60
2019-02-21T16:19:55.121Z,25.17
2019-02-21T16:22:24.525Z,19.00
2019-02-21T16:24:53.496Z,21.40
2019-02-21T16:27:22.473Z,21.00
2019-02-21T16:29:51.355Z,21.00
2019-02-21T16:32:20.422Z,19.53
2019-02-21T16:34:50.633Z,18.93
2019-02-21T16:37:19.695Z,21.37
2019-02-21T16:39:48.926Z,24.33
2019-02-21T16:42:18.108Z,21.60
2019-02-21T16:44:47.085Z,23.20
2019-02-21T16:47:16.168Z,22.23
2019-02-21T16:49:45.941Z,24.40
2019-02-21T16:52:14.949Z,22.00
2019-02-21T16:54:44.053Z,23.12
2019-02-21T16:57:13.075Z,20.10
2019-02-21T16:59:43.338Z,24.97
2019-02-21T17:02:12.925Z,23.63
2019-02-21T17:04:42.042Z,23.50
2019-02-21T17:07:15.203Z,26.80
2019-02-21T17:09:41.797Z,25.20
2019-02-21T17:12:10.914Z,26.30
2019-02-21T17:14:39.833Z,25.53
2019-02-21T17:17:17.969Z,25.50
2019-02-21T17:19:52.605Z,27.23
2019-02-21T17:22:23.621Z,29.93
2019-02-21T17:24:56.090Z,30.60
2019-02-21T17:27:32.849Z,31.57
2019-02-21T17:30:02.439Z,30.83
2019-02-21T17:32:31.413Z,40.23
2019-02-21T17:35:00.483Z,35.17
2019-02-21T17:37:29.466Z,30.30
2019-02-21T17:39:58.457Z,30.83
2019-02-21T17:42:27.599Z,31.37
2019-02-21T17:44:56.678Z,34.23
2019-02-21T17:47:25.725Z,31.33
2019-02-21T17:49:55.056Z,36.17
2019-02-21T17:52:24.324Z,38.33
2019-02-21T17:54:53.615Z,30.75
2019-02-21T17:57:22.579Z,31.27
2019-02-21T17:59:51.670Z,32.70
2019-02-21T18:02:20.690Z,36.40
2019-02-21T18:04:50.960Z,35.90
2019-02-21T18:07:20.482Z,36.90
2019-02-21T18:09:49.470Z,35.97
2019-02-21T18:12:18.782Z,33.23
2019-02-21T18:14:48.090Z,33.07
2019-02-21T18:17:17.174Z,30.73
2019-02-21T18:19:46.166Z,35.53
2019-02-21T18:22:15.646Z,32.80
2019-02-21T18:24:44.703Z,35.77
2019-02-21T18:27:13.730Z,34.37
2019-02-21T18:29:43.809Z,32.63
2019-02-21T18:32:12.954Z,37.70
2019-02-21T18:34:42.014Z,36.20
2019-02-21T18:37:11.112Z,36.03
2019-02-21T18:39:40.467Z,34.97
2019-02-21T18:42:09.630Z,30.77
2019-02-21T18:44:38.694Z,31.10
2019-02-21T18:47:07.847Z,28.00
2019-02-21T18:49:36.987Z,30.93
2019-02-21T18:52:06.070Z,42.37
2019-02-21T18:54:35.090Z,35.40
2019-02-21T18:57:04.123Z,34.10
2019-02-21T18:59:33.947Z,38.57
2019-02-21T19:02:02.911Z,31.57
2019-02-21T19:04:32.048Z,33.17
2019-02-21T19:07:01.091Z,37.60
2019-02-21T19:09:30.279Z,37.27
2019-02-21T19:11:59.347Z,37.73
2019-02-21T19:14:28.743Z,35.20
2019-02-21T19:16:57.732Z,38.00
2019-02-21T19:19:27.079Z,35.57
2019-02-21T19:21:56.063Z,38.20
2019-02-21T19:24:25.303Z,40.60
2019-02-21T19:26:54.335Z,36.27
2019-02-21T19:29:23.467Z,36.60
2019-02-21T19:31:52.607Z,41.97
2019-02-21T19:34:21.595Z,39.70
2019-02-21T19:36:50.631Z,38.77
2019-02-21T19:39:19.767Z,37.63
2019-02-21T19:41:48.763Z,41.53
2019-02-21T19:44:17.848Z,43.53
2019-02-21T19:46:46.377Z,45.90
2019-02-21T19:49:15.490Z,44.60
2019-02-21T19:51:44.584Z,48.83
2019-02-21T19:54:13.571Z,49.07
2019-02-21T19:56:42.844Z,45.37
2019-02-21T19:59:11.856Z,45.43
2019-02-21T20:01:41.016Z,49.17
2019-02-21T20:04:10.218Z,50.70
2019-02-21T20:06:39.269Z,48.33
2019-02-21T20:09:08.424Z,50.50
2019-02-21T20:11:36.868Z,50.63
2019-02-21T20:14:05.348Z,51.17
2019-02-21T20:16:34.365Z,52.33
2019-02-21T20:19:03.235Z,47.73
2019-02-21T20:21:32.100Z,48.53
2019-02-21T20:24:00.616Z,44.87
2019-02-21T20:26:29.125Z,48.17
2019-02-21T20:28:58.131Z,45.57
2019-02-21T20:31:27.041Z,44.80
2019-02-21T20:33:56.037Z,42.50
2019-02-21T20:36:25.209Z,47.77
2019-02-21T20:38:54.481Z,43.90
2019-02-21T20:41:23.533Z,45.20
2019-02-21T20:43:52.613Z,43.70
2019-02-21T20:46:21.173Z,44.53
2019-02-21T20:48:49.660Z,46.87
2019-02-21T20:51:18.173Z,42.20
2019-02-21T20:53:46.758Z,42.37
2019-02-21T20:56:15.273Z,38.60
2019-02-21T20:58:43.761Z,39.30
2019-02-21T21:01:13.453Z,38.67
2019-02-21T21:03:41.961Z,39.07
2019-02-21T21:06:10.521Z,41.90
2019-02-21T21:08:42.963Z,36.43
2019-02-21T21:11:09.841Z,35.90
2019-02-21T21:13:38.626Z,35.73
2019-02-21T21:16:07.109Z,35.77
2019-02-21T21:18:35.602Z,36.63
2019-02-21T21:21:04.202Z,35.93
2019-02-21T21:23:32.691Z,37.37
2019-02-21T21:26:01.110Z,34.57
2019-02-21T21:28:29.581Z,36.33
2019-02-21T21:30:57.985Z,39.03
2019-02-21T21:33:26.422Z,36.80
2019-02-21T21:35:54.918Z,36.83
2019-02-21T21:38:24.506Z,36.23
2019-02-21T21:40:53.227Z,36.60
2019-02-21T21:43:21.662Z,36.73
2019-02-21T21:45:50.141Z,36.20
2019-02-21T21:48:18.629Z,36.10
2019-02-21T21:50:47.122Z,36.10
2019-02-21T21:53:15.541Z,36.70
2019-02-21T21:55:44.036Z,37.07
2019-02-21T21:58:13.137Z,35.43
2019-02-21T22:00:41.758Z,34.77
2019-02-21T22:03:10.334Z,34.93
2019-02-21T22:05:38.758Z,36.50
2019-02-21T22:08:07.266Z,35.70
2019-02-21T22:10:35.754Z,35.67
2019-02-21T22:13:04.322Z,36.43
2019-02-21T22:15:32.898Z,37.13
2019-02-21T22:18:01.378Z,34.30
2019-02-21T22:20:29.783Z,36.37
2019-02-21T22:22:58.294Z,36.37
2019-02-21T22:25:27.106Z,36.17
2019-02-21T22:27:55.630Z,36.70
2019-02-21T22:30:24.138Z,34.87
2019-02-21T22:32:52.618Z,36.83
2019-02-21T22:35:21.122Z,36.67
2019-02-21T22:37:49.669Z,36.07
2019-02-21T22:40:18.214Z,35.63
2019-02-21T22:42:46.707Z,37.47
2019-02-21T22:45:15.227Z,37.33
2019-02-21T22:47:43.778Z,37.70
2019-02-21T22:50:12.914Z,38.77
2019-02-21T22:52:41.436Z,40.00
2019-02-21T22:55:10.544Z,40.00
2019-02-21T22:57:39.263Z,39.77
2019-02-21T23:00:27.239Z,42.13
2019-02-21T23:02:55.823Z,39.97
2019-02-21T23:05:43.455Z,42.03
2019-02-21T23:08:27.223Z,41.40
2019-02-21T23:10:55.715Z,39.10
2019-02-21T23:13:24.143Z,39.47
2019-02-21T23:15:52.644Z,39.97
2019-02-21T23:18:21.068Z,41.07
2019-02-21T23:20:49.643Z,41.67
2019-02-21T23:23:18.135Z,43.30
2019-02-21T23:25:46.645Z,43.83
2019-02-21T23:28:15.087Z,45.67
2019-02-21T23:30:43.627Z,43.77
2019-02-21T23:33:12.139Z,42.80
2019-02-21T23:35:41.295Z,42.37
2019-02-21T23:38:09.715Z,42.47
2019-02-21T23:40:38.136Z,45.00
2019-02-21T23:43:06.663Z,45.23
2019-02-21T23:45:35.155Z,45.00
2019-02-21T23:48:03.633Z,46.57
2019-02-21T23:53:11.964Z,46.30
2019-02-21T23:55:41.140Z,44.43
2019-02-21T23:58:10.671Z,46.20
